x

Gulf Of Maine - 78 Nm East Of Portsmouth, Nh (44005) Wave Buoy

2:50am - Fri 26th Dec 2014 All times are EST. -5 hours from GMT.

  • Sig Wave height 7.5ft
  • Peak Period 7s
  • Average Period 5s
  • Wind
    29mph, 34mph gusts
  • Sea Temp 48°f
  • 空気 Temp 46°f
  • Sea Pressure 1012.6mb
  • Gulf Of Maine - 78 Nm East Of Portsmouth, Nh
  • Gulf Of Maine - 78 Nm East Of Portsmouth, Nh

More Historic Weather Station data

Upgrade to MSW Pro to gain access to the past 30 days of data for over 8000 Wavebouys and Weather Stations around the globe.

Join Pro

Comparision Forecast

View Surf forecast
   
Fri 12/26 2:50am 7.5ft 7s 5s 29 34 mph 1012.6mb 48f 46f
1:50am 8ft 7s 5s 29 38 mph 1011.7mb 48f 46f
12:50am 8ft 7s 5s 29 36 mph 1010.5mb 48f 46f
Thu 12/25 11:50pm 9ft 7s 6s 31 38 mph 1009.5mb 48f 47f
9:50pm  -   -   -  29 38 mph 1008.7mb 48f 48f
8:50pm 9.5ft 6s 6s 31 36 mph 1007.5mb 48f 48f
7:50pm 9.5ft 7s 6s 31 38 mph 1006.4mb 48f 49f
6:50pm 8.5ft 7s 6s 29 38 mph 1005.6mb 49f 49f
5:50pm 8ft 7s 5s 29 36 mph 1004.1mb 49f 50f
4:50pm 7ft 6s 5s 29 36 mph 1002.8mb 49f 50f
3:50pm 7.5ft 6s 5s 29 36 mph 1001.4mb 49f 50f
2:50pm 7ft 6s 5s 25 31 mph 1000mb 49f 50f
1:50pm  -   -   -  31 38 mph 998.7mb 49f 50f
12:50pm 6.5ft 7s 5s 31 40 mph 997.5mb 49f 50f
11:50am  -   -   -  25 31 mph 997.5mb 49f 52f
10:50am  -   -   -  27 36 mph 997mb 49f 53f
9:50am 7ft 8s 5s 25 29 mph 997.7mb 49f 53f
8:50am 8ft 8s 6s 27 31 mph 997.5mb 49f 53f
7:50am 8ft 8s 5s 27 34 mph 997.7mb 49f 53f
6:50am 8ft 7s 6s 22 27 mph 997.4mb 49f 53f
5:50am 7ft 7s 6s 27 31 mph 998mb 49f 53f
4:50am 8ft 7s 6s 20 22 mph 998.4mb 49f 52f
3:50am 7.5ft 7s 6s 22 25 mph 998.8mb 49f 53f
2:50am 7ft 7s 5s 22 27 mph 999.5mb 49f 53f
1:50am 6.5ft 6s 5s 27 31 mph 999.4mb 49f 55f
12:50am 5.5ft 6s 5s 27 31 mph 999.6mb 49f 55f
Wed 12/24 11:50pm 5ft 5s 5s 22 27 mph 1001.2mb 49f 54f
10:50pm 5ft 5s 5s 22 27 mph 1002.8mb 49f 53f
9:50pm 5ft 7s 5s 22 25 mph 1004mb 49f 53f
8:50pm 5.5ft 7s 5s 25 29 mph 1005.3mb 49f 54f
7:50pm 5ft 8s 5s 22 27 mph 1006.3mb 49f 52f
6:50pm 5ft 8s 6s 18 22 mph 1007.9mb 49f 51f
5:50pm 5ft 8s 6s 16 18 mph 1009.1mb 49f 50f
4:50pm 5.5ft 8s 6s 13 16 mph 1010.2mb 49f 49f
3:50pm 5ft 8s 6s 13 16 mph 1010.8mb 49f 49f
2:50pm 6.5ft 8s 6s 13 18 mph 1011.8mb 49f 49f
1:50pm 6ft 7s 5s 16 18 mph 1012.5mb 49f 48f
12:50pm 6ft 6s 5s 13 16 mph 1013.7mb 49f 47f
11:50am 6ft 9s 5s 16 18 mph 1015.3mb 49f 47f
10:50am 5.5ft 8s 5s 18 22 mph 1015.8mb 49f 47f
9:50am 6ft 8s 5s 20 25 mph 1016.9mb 48f 47f
8:50am 7ft 8s 6s 20 25 mph 1017.8mb 48f 46f
7:50am 6.5ft 8s 5s 20 25 mph 1018.8mb 48f 46f
6:50am 7ft 8s 6s 18 22 mph 1019.7mb 48f 45f
5:50am 7.5ft 8s 6s 18 22 mph 1019.9mb 48f 45f
4:50am 8.5ft 8s 6s 20 25 mph 1019.3mb 48f 45f
3:50am 7.5ft 9s 6s 22 29 mph 1019.6mb 48f 44f
2:50am 8ft 9s 6s 20 25 mph 1020.6mb 48f 44f
1:50am 8ft 9s 6s 18 25 mph 1021.1mb 48f 45f
12:50am 8ft 8s 6s 20 25 mph 1020.8mb 48f 45f
Tue 12/23 11:50pm 8.5ft 9s 6s 20 25 mph 1021.3mb 48f 45f
10:50pm 7.5ft 8s 6s 20 22 mph 1021.7mb 48f 45f
9:50pm 7.5ft 8s 6s 22 27 mph 1021.6mb 49f 45f
8:50pm 8ft 8s 6s 22 29 mph 1022.2mb 49f 45f
7:50pm 8ft 8s 6s 22 27 mph 1022.6mb 49f 45f
6:50pm 8.5ft 8s 6s 22 25 mph 1022.8mb 49f 45f
5:50pm 9ft 8s 6s 22 27 mph 1022.3mb 49f 45f
4:50pm 8ft 8s 6s 25 29 mph 1022.6mb 48f 45f
3:50pm 9ft 9s 6s 25 29 mph 1022.6mb 49f 45f
2:50pm 8.5ft 8s 6s 27 31 mph 1022.2mb 49f 45f
1:50pm 9.5ft 8s 6s 25 31 mph 1022.4mb 49f 44f
12:50pm 9ft 8s 6s 27 31 mph 1022.4mb 49f 44f
11:50am 8.5ft 8s 6s 25 31 mph 1023.1mb 48f 44f
10:50am 8.5ft 8s 6s 27 31 mph 1024.7mb 48f 43f
9:50am 8ft 7s 5s 25 31 mph 1025.4mb 48f 43f
8:50am 7.5ft 7s 5s 25 29 mph 1026.4mb 48f 42f
7:50am 7ft 8s 5s 22 25 mph 1027.3mb 48f 41f
6:50am 7ft 8s 5s 25 29 mph 1026.4mb 48f 41f
5:50am 7ft 7s 5s 25 29 mph 1025.7mb 48f 41f
4:50am 7ft 7s 6s 20 25 mph 1026.3mb 48f 42f
3:50am 7ft 8s 6s 22 27 mph 1025.8mb 48f 41f
2:50am 6ft 7s 5s 22 27 mph 1026.5mb 48f 43f
1:50am 6ft 7s 5s 20 25 mph 1026.5mb 48f 43f
12:50am 6ft 6s 5s 20 25 mph 1026.2mb 48f 43f
Mon 12/22 11:50pm 5ft 5s 5s 20 22 mph 1026.9mb 48f 43f
10:50pm 5ft 6s 5s 20 25 mph 1027mb 48f 43f
9:50pm 4.5ft 5s 4s 18 22 mph 1027.6mb 48f 43f
8:50pm 4.5ft 6s 5s 20 25 mph 1027.6mb 48f 43f
7:50pm 4ft 7s 4s 18 20 mph 1028mb 48f 43f
6:50pm 4.5ft 7s 5s 18 20 mph 1028.2mb 48f 43f
5:50pm 4.5ft 8s 5s 18 20 mph 1027.9mb 48f 43f
4:50pm 4.5ft 5s 5s 13 18 mph 1027.6mb 49f 43f
3:50pm 4.5ft 8s 5s 11 16 mph 1028.1mb 49f 42f
2:50pm 4.5ft 7s 5s 13 18 mph 1027.9mb 49f 43f
1:50pm 3.5ft 8s 5s 16 18 mph 1027.2mb 49f 43f
12:50pm 3.5ft 4s 5s 13 16 mph 1026.9mb 49f 43f
11:50am 3.5ft 7s 5s 11 13 mph 1027.7mb 49f 42f
10:50am 3ft 6s 4s 13 16 mph 1028.6mb 48f 42f
9:50am 3.5ft 6s 5s 11 13 mph 1028.9mb 48f 42f